Rhourd El Adra — 7TBS — position and weather

sailwx.info

Track history (hours):
 
Tides and Currents Weather Stations Pressure Air Temp Water Temp Dewpoint Dewpoint Depression Visibility Wind Speed Wind Dir Waves Ship Positions

Rhourd El Adra

Last reported at 2014-Dec-19 05:33 UTC. Time now 2014-Dec-20 13:00 UTC.
Position N 40°50' E 014°18'.

Length 156 m; draft 9.2 m.

Type: Ship (hazmat cat C). MMSI: 605026210.

Date/timePositionNaut miles runAvg speedWind from/ knotsBaromVisibWave heightAir tempDewpointWater temp
2014-Dec-19 05:33N 40°50' E 014°18'2 1.9
2014-Dec-19 04:30N 40°48' E 014°19'0 0.0
2014-Dec-19 03:30N 40°48' E 014°19'0 0.0
2014-Dec-19 02:33N 40°48' E 014°19'0 0.0
2014-Dec-19 01:33N 40°48' E 014°19'0 0.0
2014-Dec-19 00:33N 40°48' E 014°19'0 0.0
2014-Dec-18 23:32N 40°48' E 014°19'0 0.0
2014-Dec-18 22:32N 40°48' E 014°19'0 0.0
2014-Dec-18 21:33N 40°48' E 014°19'0 0.0
2014-Dec-18 20:33N 40°48' E 014°19'7 6.9
2014-Dec-18 19:33N 40°45' E 014°11'1414.4
2014-Dec-18 18:33N 40°36' E 013°56'1515.2
2014-Dec-18 17:33N 40°29' E 013°38'  
2014-Dec-14 20:33N 38°40' E 000°53'3115.3
2014-Dec-14 18:33N 39°10' E 000°58'3215.8
2014-Dec-14 16:30N 39°42' E 001°01'1516.2
2014-Dec-14 15:33N 39°58' E 001°03'1716.6
2014-Dec-14 14:33N 40°14' E 001°05'1716.6
2014-Dec-14 13:34N 40°31' E 001°07'1615.9
2014-Dec-14 12:33N 40°47' E 001°09'19 6.0
2014-Dec-14 09:25N 41°05' E 001°14'0 0.1
2014-Dec-14 08:33N 41°05' E 001°14'42 1.7
2014-Dec-13 08:16N 40°23' E 001°06'1115.2
2014-Dec-13 07:33N 40°12' E 001°05'1515.0
2014-Dec-13 06:33N 39°57' E 001°03'3515.3
2014-Dec-13 04:16N 39°22' E 001°01'1215.7
2014-Dec-13 03:29N 39°10' E 001°00'1715.7
2014-Dec-13 02:25N 38°54' E 000°58'1515.5
2014-Dec-13 01:26N 38°39' E 000°54'  
Track history (hours):
 
Tides and Currents Weather Stations Pressure Air Temp Water Temp Dewpoint Dewpoint Depression Visibility Wind Speed Wind Dir Waves Ship Positions

Rhourd El Adra

Last reported at 2014-Dec-19 05:33 UTC. Time now 2014-Dec-20 13:00 UTC.
Position N 40°50' E 014°18'.

Length 156 m; draft 9.2 m.

Type: Ship (hazmat cat C). MMSI: 605026210.

Date/timePositionNaut miles runAvg speedWind from/ knotsBaromVisibWave heightAir tempDewpointWater temp
2014-Dec-19 05:33N 40°50' E 014°18'2 1.9
2014-Dec-19 04:30N 40°48' E 014°19'0 0.0
2014-Dec-19 03:30N 40°48' E 014°19'0 0.0
2014-Dec-19 02:33N 40°48' E 014°19'0 0.0
2014-Dec-19 01:33N 40°48' E 014°19'0 0.0
2014-Dec-19 00:33N 40°48' E 014°19'0 0.0
2014-Dec-18 23:32N 40°48' E 014°19'0 0.0
2014-Dec-18 22:32N 40°48' E 014°19'0 0.0
2014-Dec-18 21:33N 40°48' E 014°19'0 0.0
2014-Dec-18 20:33N 40°48' E 014°19'7 6.9
2014-Dec-18 19:33N 40°45' E 014°11'1414.4
2014-Dec-18 18:33N 40°36' E 013°56'1515.2
2014-Dec-18 17:33N 40°29' E 013°38'  
2014-Dec-14 20:33N 38°40' E 000°53'3115.3
2014-Dec-14 18:33N 39°10' E 000°58'3215.8
2014-Dec-14 16:30N 39°42' E 001°01'1516.2
2014-Dec-14 15:33N 39°58' E 001°03'1716.6
2014-Dec-14 14:33N 40°14' E 001°05'1716.6
2014-Dec-14 13:34N 40°31' E 001°07'1615.9
2014-Dec-14 12:33N 40°47' E 001°09'19 6.0
2014-Dec-14 09:25N 41°05' E 001°14'0 0.1
2014-Dec-14 08:33N 41°05' E 001°14'42 1.7
2014-Dec-13 08:16N 40°23' E 001°06'1115.2
2014-Dec-13 07:33N 40°12' E 001°05'1515.0
2014-Dec-13 06:33N 39°57' E 001°03'3515.3
2014-Dec-13 04:16N 39°22' E 001°01'1215.7
2014-Dec-13 03:29N 39°10' E 001°00'1715.7
2014-Dec-13 02:25N 38°54' E 000°58'1515.5
2014-Dec-13 01:26N 38°39' E 000°54'  

Dump ship's entire track history